Time;durP1;ratioP1;P1;durP2;ratioP2;P2;SDS_P1;SDS_P2;PMS_P1;PMS_P2;Temp;Humidity;BMP_temperature;BMP_pressure;BME280_temperature;BME280_humidity;BME280_pressure;Samples;Min_cycle;Max_cycle;Signal;HPM_P1;HPM_P2
2022/11/16 00:01:07;;;;;;;5.43;3.10;;;;;;;11.42;100.00;99871.09;5010240;28;101072;-31
2022/11/16 00:03:34;;;;;;;7.18;3.20;;;;;;;11.45;100.00;99876.25;5010424;28;100764;-31
2022/11/16 00:06:01;;;;;;;4.82;2.92;;;;;;;11.45;100.00;99873.56;5010187;28;96771;-31
2022/11/16 00:08:32;;;;;;;5.82;3.15;;;;;;;11.47;100.00;99860.72;5012122;28;96952;-32
2022/11/16 00:11:05;;;;;;;3.27;2.47;;;;;;;11.45;100.00;99857.28;5010160;28;100700;-32
2022/11/16 00:13:34;;;;;;;4.38;2.63;;;;;;;11.47;100.00;99871.59;5010508;28;101322;-32
2022/11/16 00:16:00;;;;;;;5.75;3.47;;;;;;;11.47;100.00;99866.16;5010153;28;96655;-32
2022/11/16 00:18:25;;;;;;;6.80;3.55;;;;;;;11.47;100.00;99870.72;5011572;28;96903;-31
2022/11/16 00:20:51;;;;;;;6.03;3.13;;;;;;;11.49;100.00;99874.19;5010887;28;99468;-31
2022/11/16 00:23:16;;;;;;;4.93;3.30;;;;;;;11.46;100.00;99874.41;5013909;28;108345;-32
2022/11/16 00:25:42;;;;;;;5.50;3.40;;;;;;;11.48;100.00;99875.16;5014998;28;96561;-32
2022/11/16 00:28:07;;;;;;;4.57;2.55;;;;;;;11.47;100.00;99885.13;5015062;28;96488;-32
2022/11/16 00:30:32;;;;;;;6.18;3.35;;;;;;;11.46;100.00;99880.72;5014477;28;112384;-32
2022/11/16 00:33:05;;;;;;;8.20;3.75;;;;;;;11.48;100.00;99884.13;5014846;28;101222;-32
2022/11/16 00:35:31;;;;;;;6.07;3.33;;;;;;;11.50;100.00;99872.31;5013731;28;96797;-31
2022/11/16 00:37:56;;;;;;;5.50;3.28;;;;;;;11.49;100.00;99882.31;5015429;28;96771;-32
2022/11/16 00:40:22;;;;;;;7.70;3.63;;;;;;;11.50;100.00;99885.88;5014438;28;97968;-32
2022/11/16 00:42:47;;;;;;;6.95;3.90;;;;;;;11.52;100.00;99878.50;5014484;28;99445;-32
2022/11/16 00:45:12;;;;;;;6.82;3.28;;;;;;;11.51;100.00;99877.59;5014414;28;96678;-31
2022/11/16 00:47:38;;;;;;;6.38;3.15;;;;;;;11.52;100.00;99881.19;5015105;28;96919;-31
2022/11/16 00:50:04;;;;;;;5.30;2.92;;;;;;;11.54;100.00;99888.22;5014693;28;98026;-32
2022/11/16 00:52:29;;;;;;;4.32;3.00;;;;;;;11.55;100.00;99880.94;5014531;28;97793;-31
2022/11/16 00:54:55;;;;;;;5.40;3.25;;;;;;;11.55;100.00;99883.66;5014484;28;97176;-31
2022/11/16 00:57:21;;;;;;;3.90;2.70;;;;;;;11.54;100.00;99876.53;5014837;28;96757;-31
2022/11/16 00:59:46;;;;;;;6.32;3.15;;;;;;;11.52;100.00;99884.78;5014881;28;97347;-31
2022/11/16 01:02:11;;;;;;;7.18;3.63;;;;;;;11.53;100.00;99874.78;5014206;28;110175;-31
2022/11/16 01:04:36;;;;;;;6.72;3.35;;;;;;;11.54;100.00;99885.50;5014409;28;96475;-31
2022/11/16 01:07:02;;;;;;;6.72;3.70;;;;;;;11.55;100.00;99876.38;5014709;28;96962;-31
2022/11/16 01:09:27;;;;;;;4.53;2.88;;;;;;;11.53;100.00;99878.34;5013709;28;97457;-31
2022/11/16 01:12:08;;;;;;;4.53;3.05;;;;;;;11.54;100.00;99871.94;5014400;28;97805;-31
2022/11/16 01:14:38;;;;;;;5.47;3.30;;;;;;;11.54;100.00;99871.09;5014500;28;96453;-32
2022/11/16 01:17:03;;;;;;;4.15;2.65;;;;;;;11.57;100.00;99876.25;5012847;28;96992;-32
2022/11/16 01:19:29;;;;;;;5.85;3.42;;;;;;;11.59;100.00;99874.28;5014504;28;97536;-31
2022/11/16 01:21:55;;;;;;;4.28;2.53;;;;;;;11.59;100.00;99868.88;5012208;28;100687;-31
2022/11/16 01:24:21;;;;;;;3.70;2.50;;;;;;;11.56;100.00;99875.41;5012748;28;96604;-32
2022/11/16 01:26:46;;;;;;;5.65;3.20;;;;;;;11.56;100.00;99872.69;5014756;28;96806;-31
2022/11/16 01:29:11;;;;;;;6.57;2.92;;;;;;;11.56;100.00;99874.50;5013716;28;99244;-31
2022/11/16 01:31:36;;;;;;;4.43;2.88;;;;;;;11.56;100.00;99874.50;5013796;28;99017;-31
2022/11/16 01:34:02;;;;;;;4.35;2.55;;;;;;;11.56;100.00;99869.09;5012348;28;96658;-31
2022/11/16 01:36:28;;;;;;;5.38;2.78;;;;;;;11.56;100.00;99875.41;5014216;28;96792;-32
2022/11/16 01:38:53;;;;;;;4.95;2.50;;;;;;;11.56;100.00;99869.09;5013835;28;97433;-32
2022/11/16 01:41:22;;;;;;;3.50;1.88;;;;;;;11.54;100.00;99862.97;5013911;28;97285;-31
2022/11/16 01:43:58;;;;;;;5.30;2.55;;;;;;;11.54;100.00;99869.25;5012533;28;96662;-32
2022/11/16 01:46:25;;;;;;;4.90;2.80;;;;;;;11.53;100.00;99870.22;5013638;28;96831;-31
2022/11/16 01:48:58;;;;;;;5.13;2.90;;;;;;;11.56;100.00;99866.38;5012289;28;100954;-31
2022/11/16 01:51:25;;;;;;;6.32;2.85;;;;;;;11.53;100.00;99856.66;5012676;28;101162;-31
2022/11/16 01:53:50;;;;;;;4.93;2.72;;;;;;;11.55;100.00;99867.38;5012378;28;96598;-31
2022/11/16 01:56:16;;;;;;;4.80;2.45;;;;;;;11.55;100.00;99856.53;5013812;28;96756;-31
2022/11/16 01:58:41;;;;;;;5.47;2.72;;;;;;;11.55;100.00;99854.69;5013160;28;98051;-32
2022/11/16 02:01:07;;;;;;;6.60;3.33;;;;;;;11.53;100.00;99859.34;5013509;28;97961;-31
2022/11/16 02:03:35;;;;;;;7.40;3.53;;;;;;;11.52;100.00;99865.78;5013813;28;96520;-31
2022/11/16 02:06:09;;;;;;;5.82;3.13;;;;;;;11.56;100.00;99874.50;5011964;28;96879;-31
2022/11/16 02:11:37;;;;;;;;;;;;;;;11.55;100.00;99875.53;5014026;28;96913;-31
2022/11/16 02:14:35;;;;;;;4.47;2.37;;;;;;;11.52;100.00;99879.34;5013093;28;96752;-32
2022/11/16 02:17:12;;;;;;;6.72;3.15;;;;;;;11.50;100.00;99878.59;5013724;28;96799;-32
2022/11/16 02:19:53;;;;;;;9.50;3.08;;;;;;;11.48;100.00;99857.03;5011882;28;100889;-33
2022/11/16 02:22:38;;;;;;;6.55;3.25;;;;;;;11.50;100.00;99866.91;5012748;28;97108;-33
2022/11/16 02:25:08;;;;;;;5.72;2.92;;;;;;;11.45;100.00;99868.13;5011431;28;96992;-31
2022/11/16 02:27:52;;;;;;;6.65;2.53;;;;;;;11.45;100.00;99867.28;5011800;28;96737;-32
2022/11/16 02:30:19;;;;;;;5.35;2.42;;;;;;;11.41;100.00;99850.38;5012808;28;99403;-32
2022/11/16 02:32:52;;;;;;;7.15;2.72;;;;;;;11.43;100.00;99863.81;5011499;28;100983;-33
2022/11/16 02:35:42;;;;;;;4.13;2.10;;;;;;;11.42;100.00;99865.66;5011705;28;96756;-31
2022/11/16 02:38:16;;;;;;;3.08;2.08;;;;;;;11.39;100.00;99860.50;5011811;28;96872;-32
2022/11/16 02:40:46;;;;;;;4.95;2.47;;;;;;;11.38;100.00;99850.63;5011461;28;101362;-31
2022/11/16 02:43:20;;;;;;;6.20;2.85;;;;;;;11.37;100.00;99857.06;5011681;28;100838;-31
2022/11/16 02:45:50;;;;;;;7.47;2.67;;;;;;;11.37;100.00;99861.59;5011417;28;96856;-33
2022/11/16 02:48:28;;;;;;;3.58;2.25;;;;;;;11.36;100.00;99866.16;5011707;28;96825;-33
2022/11/16 02:50:54;;;;;;;7.60;2.58;;;;;;;11.35;100.00;99863.59;5012434;28;98018;-32
2022/11/16 02:53:20;;;;;;;7.40;2.33;;;;;;;11.32;100.00;99867.41;5011259;28;100891;-32
2022/11/16 02:55:46;;;;;;;5.18;2.53;;;;;;;11.33;100.00;99877.25;5011215;28;96728;-31
2022/11/16 02:58:16;;;;;;;5.30;2.72;;;;;;;11.28;100.00;99874.06;5013067;28;99826;-31
2022/11/16 03:01:07;;;;;;;2.85;1.90;;;;;;;11.29;100.00;99867.63;5011249;28;100924;-31
2022/11/16 03:04:10;;;;;;;3.10;2.15;;;;;;;11.25;100.00;99864.31;5012561;28;98838;-32
2022/11/16 03:06:40;;;;;;;4.75;2.13;;;;;;;11.27;100.00;99864.19;4951081;28;97006;-31
2022/11/16 03:09:10;;;;;;;3.05;1.88;;;;;;;11.26;100.00;99867.91;4999960;28;96840;-31
2022/11/16 03:12:01;;;;;;;3.55;1.80;;;;;;;11.22;100.00;99867.25;5011161;28;101391;-31
2022/11/16 03:14:50;;;;;;;7.13;2.45;;;;;;;11.21;100.00;99878.25;5012365;28;97849;-31
2022/11/16 03:17:46;;;;;;;3.95;2.20;;;;;;;11.17;100.00;99874.03;5011629;28;96581;-31
2022/11/16 03:20:21;;;;;;;2.83;1.73;;;;;;;11.17;100.00;99879.47;5012761;28;96787;-32
2022/11/16 03:22:59;;;;;;;3.05;1.90;;;;;;;11.14;100.00;99874.31;5011670;28;98017;-31
2022/11/16 03:25:30;;;;;;;7.93;2.55;;;;;;;11.13;100.00;99875.25;5010768;28;101051;-31
2022/11/16 03:28:04;;;;;;;4.03;2.00;;;;;;;11.12;100.00;99878.97;5011111;28;96771;-33
2022/11/16 03:30:35;;;;;;;3.53;1.90;;;;;;;11.11;100.00;99875.41;5012188;28;96617;-31
2022/11/16 03:33:27;;;;;;;3.35;1.75;;;;;;;11.10;100.00;99880.94;5010719;28;101111;-32
2022/11/16 03:36:16;;;;;;;4.15;2.10;;;;;;;11.07;100.00;99878.47;5011012;28;100761;-31
2022/11/16 03:38:44;;;;;;;6.78;2.13;;;;;;;11.07;100.00;99883.91;5010873;28;96568;-31
2022/11/16 03:41:12;;;;;;;7.45;2.28;;;;;;;11.03;100.00;99881.41;5010785;28;96966;-31
2022/11/16 03:43:41;;;;;;;5.43;2.10;;;;;;;11.00;100.00;99875.38;5011197;28;99280;-34
2022/11/16 03:46:06;;;;;;;3.45;2.00;;;;;;;11.03;100.00;99889.53;5010625;28;100747;-31
2022/11/16 03:48:37;;;;;;;3.17;2.05;;;;;;;11.00;100.00;99878.09;5012073;28;96572;-31
2022/11/16 03:51:03;;;;;;;3.33;2.13;;;;;;;11.00;100.00;99884.38;5010584;28;96745;-31
2022/11/16 03:53:28;;;;;;;5.70;2.45;;;;;;;10.97;100.00;99881.06;5011732;28;99471;-31
2022/11/16 03:55:54;;;;;;;6.05;2.70;;;;;;;10.98;100.00;99889.03;5011845;28;99338;-31
2022/11/16 03:58:19;;;;;;;4.18;2.33;;;;;;;10.96;100.00;99885.59;5014941;28;96805;-31
2022/11/16 04:00:44;;;;;;;10.68;2.50;;;;;;;10.94;100.00;99889.41;5015697;28;100204;-31
2022/11/16 04:03:10;;;;;;;5.00;1.92;;;;;;;10.94;100.00;99898.44;5015196;28;99263;-31
2022/11/16 04:25:17;;;;;;;2.58;1.48;;;;;;;10.81;100.00;99905.78;5015125;28;97029;-33
2022/11/16 04:37:47;;;;;;;4.95;2.28;;;;;;;10.79;100.00;99907.72;5015298;28;96630;-31
2022/11/16 04:38:39;;;;;;;4.20;2.35;;;;;;;10.77;100.00;99902.44;5013295;28;96916;-32
2022/11/16 04:42:12;;;;;;;7.85;2.38;;;;;;;10.74;100.00;99905.38;5014577;28;103507;-31
2022/11/16 04:43:50;;;;;;;5.75;2.55;;;;;;;10.73;100.00;99908.22;5014798;28;96669;-31
2022/11/16 04:48:59;;;;;;;3.90;1.92;;;;;;;10.65;100.00;99905.22;5014980;28;97015;-31
2022/11/16 04:51:24;;;;;;;5.07;2.35;;;;;;;10.65;99.75;99913.34;5014597;28;100577;-33
2022/11/16 04:53:50;;;;;;;3.38;1.95;;;;;;;10.66;99.64;99915.09;5015277;28;96772;-31
2022/11/16 04:56:15;;;;;;;3.60;1.73;;;;;;;10.63;99.99;99922.47;5014442;28;99662;-34
2022/11/16 04:58:40;;;;;;;3.35;1.67;;;;;;;10.63;99.43;99925.19;5014308;28;97845;-31
2022/11/16 05:01:06;;;;;;;6.28;1.75;;;;;;;10.58;99.78;99919.25;5014101;28;96462;-32
2022/11/16 05:03:31;;;;;;;4.38;2.10;;;;;;;10.53;99.11;99918.72;5014482;28;97993;-31
2022/11/16 05:05:56;;;;;;;3.05;1.67;;;;;;;10.52;98.98;99914.28;5014285;28;99258;-31
2022/11/16 05:08:22;;;;;;;3.25;1.98;;;;;;;10.46;98.65;99916.59;5012860;28;107778;-32
2022/11/16 05:10:49;;;;;;;2.92;1.42;;;;;;;10.43;99.12;99909.56;5014112;28;96696;-31
2022/11/16 05:13:15;;;;;;;3.33;1.08;;;;;;;10.42;98.77;99910.56;5012708;28;96715;-31
2022/11/16 05:15:44;;;;;;;2.78;0.90;;;;;;;10.32;97.75;99917.66;5014204;28;98512;-33
2022/11/16 05:18:09;;;;;;;3.55;1.40;;;;;;;10.33;98.09;99922.09;5013210;28;100557;-32
2022/11/16 05:26:02;;;;;;;1.33;0.80;;;;;;;10.28;97.85;99925.16;5011300;28;97063;-31
2022/11/16 05:28:28;;;;;;;2.65;1.15;;;;;;;10.26;98.09;99920.81;5014267;28;97999;-31
2022/11/16 05:30:53;;;;;;;1.35;0.82;;;;;;;10.19;97.49;99923.09;5013894;28;98297;-32
2022/11/16 05:33:18;;;;;;;0.65;0.63;;;;;;;10.13;97.50;99927.13;5014396;28;96902;-31
2022/11/16 05:35:44;;;;;;;2.72;0.90;;;;;;;10.12;97.44;99924.53;5013747;28;99178;-31
2022/11/16 05:38:09;;;;;;;2.00;1.00;;;;;;;10.11;97.18;99915.56;5013823;28;97763;-31
2022/11/16 05:40:34;;;;;;;2.50;1.13;;;;;;;10.08;96.82;99912.19;5013967;28;102971;-32
2022/11/16 05:43:00;;;;;;;3.50;1.23;;;;;;;10.09;97.01;99917.50;5012987;28;96883;-31
2022/11/16 05:45:25;;;;;;;2.65;0.70;;;;;;;10.07;96.99;99916.75;5013552;28;98841;-31
2022/11/16 05:47:50;;;;;;;1.25;0.70;;;;;;;10.03;96.81;99920.66;5012419;28;98996;-31
2022/11/16 05:50:16;;;;;;;2.30;0.82;;;;;;;10.00;96.95;99926.31;5013149;28;102766;-31
2022/11/16 05:52:41;;;;;;;2.22;1.00;;;;;;;9.97;96.58;99930.09;5013532;28;96788;-32
2022/11/16 05:55:07;;;;;;;2.78;1.00;;;;;;;9.94;96.92;99924.94;5013168;28;110841;-31
2022/11/16 05:57:32;;;;;;;2.33;0.82;;;;;;;9.92;96.95;99931.44;5012093;28;100995;-32
2022/11/16 05:59:57;;;;;;;2.28;1.00;;;;;;;9.87;97.06;99926.38;5013626;28;96492;-31
2022/11/16 06:02:23;;;;;;;1.50;0.73;;;;;;;9.91;97.15;99930.53;5013461;28;100738;-31
2022/11/16 06:04:48;;;;;;;2.33;0.50;;;;;;;9.89;97.19;99939.75;5013733;28;100865;-31
2022/11/16 06:07:13;;;;;;;3.55;0.95;;;;;;;9.86;97.01;99932.72;5013833;28;105751;-32
2022/11/16 06:09:38;;;;;;;1.35;0.75;;;;;;;9.81;96.39;99943.03;5013715;28;96500;-32
2022/11/16 06:12:04;;;;;;;3.42;1.20;;;;;;;9.73;96.70;99949.00;5013426;28;96861;-31
2022/11/16 06:14:29;;;;;;;1.60;0.95;;;;;;;9.71;96.96;99939.28;5012973;28;97852;-33
2022/11/16 06:16:55;;;;;;;1.77;1.00;;;;;;;9.68;96.88;99951.19;5013236;28;97298;-31
2022/11/16 06:19:20;;;;;;;1.42;0.77;;;;;;;9.65;96.62;99947.81;5012800;28;96581;-32
2022/11/16 06:21:45;;;;;;;2.15;0.98;;;;;;;9.58;96.26;99950.09;5012979;28;96739;-31
2022/11/16 06:24:11;;;;;;;4.55;1.30;;;;;;;9.52;96.74;99951.41;5012913;28;110548;-31
2022/11/16 06:26:36;;;;;;;2.05;1.08;;;;;;;9.48;96.91;99954.44;5013298;28;96836;-32
2022/11/16 06:29:02;;;;;;;1.27;0.75;;;;;;;9.39;96.91;99950.56;5013431;28;96717;-32
2022/11/16 06:31:28;;;;;;;2.10;0.95;;;;;;;9.39;97.16;99957.78;5013629;28;96821;-31
2022/11/16 06:33:53;;;;;;;1.08;0.82;;;;;;;9.38;97.16;99956.06;5013186;28;97886;-32
2022/11/16 06:36:19;;;;;;;3.38;0.70;;;;;;;9.31;96.90;99961.03;5012847;28;102835;-32
2022/11/16 06:38:44;;;;;;;3.90;1.10;;;;;;;9.25;97.05;99959.66;5012040;28;97697;-31
2022/11/16 06:41:09;;;;;;;1.92;0.82;;;;;;;9.20;96.99;99959.13;5011842;28;98379;-31
2022/11/16 06:43:35;;;;;;;5.78;1.10;;;;;;;9.21;97.13;99960.84;5012876;28;103843;-31
2022/11/16 06:46:00;;;;;;;7.35;1.25;;;;;;;9.18;96.91;99963.75;5012725;28;99191;-31
2022/11/16 06:48:25;;;;;;;1.75;0.98;;;;;;;9.14;96.94;99965.78;5012937;28;96686;-31
2022/11/16 06:50:51;;;;;;;5.78;0.82;;;;;;;9.13;96.85;99969.47;5013032;28;96721;-32
2022/11/16 06:53:17;;;;;;;0.75;0.60;;;;;;;9.16;97.10;99963.00;5012792;28;96779;-33
2022/11/16 06:55:43;;;;;;;4.15;0.98;;;;;;;9.13;96.68;99965.91;5013456;28;97373;-31
2022/11/16 06:58:08;;;;;;;2.10;0.80;;;;;;;9.09;97.13;99967.97;5013057;28;96504;-31
2022/11/16 07:00:34;;;;;;;0.73;0.57;;;;;;;9.11;96.83;99973.25;5012882;28;96716;-31
2022/11/16 07:03:01;;;;;;;3.67;0.70;;;;;;;9.10;97.01;99972.38;5012142;28;97900;-32
2022/11/16 07:05:27;;;;;;;2.08;0.70;;;;;;;9.08;96.75;99957.25;5012222;28;99249;-31
2022/11/16 07:07:54;;;;;;;5.13;0.82;;;;;;;9.08;96.70;99966.25;5012668;28;100723;-31
2022/11/16 07:10:19;;;;;;;1.95;1.00;;;;;;;9.04;96.73;99964.72;5010781;28;96636;-32
2022/11/16 07:12:44;;;;;;;1.30;0.88;;;;;;;9.05;96.90;99970.97;5012578;28;97878;-32
2022/11/16 07:15:09;;;;;;;3.20;0.93;;;;;;;8.99;96.94;99969.56;5011133;28;98876;-31
2022/11/16 07:17:35;;;;;;;2.63;0.88;;;;;;;8.99;96.80;99971.41;5012242;28;96690;-31
2022/11/16 07:20:01;;;;;;;5.80;0.88;;;;;;;8.97;96.72;99984.16;5012944;28;96618;-31
2022/11/16 07:22:26;;;;;;;1.15;0.65;;;;;;;8.96;96.75;99982.41;5011412;28;99209;-31
2022/11/16 07:24:51;;;;;;;3.05;1.20;;;;;;;8.94;96.77;99987.94;5012639;28;97195;-31
2022/11/16 07:27:16;;;;;;;1.85;1.02;;;;;;;8.92;96.71;99989.88;5012007;28;96464;-31
2022/11/16 07:29:42;;;;;;;4.15;0.80;;;;;;;8.91;96.95;99993.53;5012034;28;105784;-31
2022/11/16 07:32:07;;;;;;;2.00;0.75;;;;;;;8.92;96.78;99995.28;5011101;28;97945;-33
2022/11/16 07:34:32;;;;;;;1.67;0.95;;;;;;;8.90;96.88;99992.66;5009921;28;98453;-32
2022/11/16 07:36:58;;;;;;;3.53;1.48;;;;;;;8.89;96.90;99993.66;5009859;28;99930;-32
2022/11/16 07:39:23;;;;;;;1.70;0.93;;;;;;;8.90;96.76;99994.50;5009877;28;97025;-31
2022/11/16 07:41:51;;;;;;;2.30;1.25;;;;;;;8.89;97.15;100000.88;5009741;28;97837;-35
2022/11/16 07:44:17;;;;;;;1.52;0.65;;;;;;;8.88;96.96;100004.56;5010452;28;97800;-31
2022/11/16 07:46:42;;;;;;;4.80;1.25;;;;;;;8.86;97.00;100003.78;5010709;28;97011;-31
2022/11/16 07:49:14;;;;;;;2.95;1.52;;;;;;;8.86;97.10;100004.66;5011785;28;96703;-31
2022/11/16 07:51:39;;;;;;;2.83;1.30;;;;;;;8.89;97.08;100011.66;5009963;28;100814;-31
2022/11/16 07:54:05;;;;;;;1.90;1.27;;;;;;;8.88;97.20;100013.50;5011832;28;99173;-31
2022/11/16 07:56:30;;;;;;;2.28;1.23;;;;;;;8.89;97.21;100020.66;5011888;28;96633;-31
2022/11/16 07:58:56;;;;;;;2.67;0.80;;;;;;;8.86;97.51;100018.16;5012211;28;96751;-32
2022/11/16 08:01:21;;;;;;;5.57;1.15;;;;;;;8.89;97.60;100012.56;5011774;28;98537;-33
2022/11/16 08:03:47;;;;;;;2.95;1.55;;;;;;;8.92;97.54;100014.19;5011747;28;97823;-31
2022/11/16 08:06:25;;;;;;;3.95;1.20;;;;;;;8.93;97.20;100014.06;5011438;28;96703;-31
2022/11/16 08:08:50;;;;;;;2.45;0.95;;;;;;;8.91;97.30;100013.31;5010902;28;96682;-31
2022/11/16 08:11:16;;;;;;;1.08;0.80;;;;;;;8.91;97.38;100018.72;5011608;28;97909;-31
2022/11/16 08:13:41;;;;;;;2.70;1.45;;;;;;;8.93;96.96;100021.31;5011729;28;97988;-31
2022/11/16 08:16:13;;;;;;;5.15;1.42;;;;;;;8.92;97.36;100016.88;5009500;28;96854;-34
2022/11/16 08:18:40;;;;;;;1.23;0.90;;;;;;;8.93;97.13;100016.75;5011636;28;96731;-32
2022/11/16 08:21:07;;;;;;;3.10;1.17;;;;;;;8.95;96.99;100023.91;5010130;28;101255;-31
2022/11/16 08:23:33;;;;;;;5.75;0.98;;;;;;;8.95;97.05;100024.78;5009815;28;101261;-32
2022/11/16 08:26:00;;;;;;;4.70;1.30;;;;;;;8.96;97.03;100029.19;5010171;28;96632;-31
2022/11/16 08:28:26;;;;;;;1.95;1.17;;;;;;;8.96;96.69;100020.22;5010102;28;96775;-31
2022/11/16 08:30:52;;;;;;;0.82;0.57;;;;;;;8.98;97.24;100023.69;5009955;28;98959;-31
2022/11/16 08:33:20;;;;;;;3.13;1.42;;;;;;;8.98;96.97;100016.44;5012262;28;96559;-31
2022/11/16 08:35:47;;;;;;;1.35;0.73;;;;;;;8.98;96.82;100012.88;5011282;28;96557;-31
2022/11/16 08:38:12;;;;;;;9.52;1.45;;;;;;;9.03;96.65;100016.13;5010044;28;96918;-31
2022/11/16 08:40:38;;;;;;;2.85;1.02;;;;;;;9.04;96.50;100017.88;5009531;28;100937;-33
2022/11/16 08:43:03;;;;;;;1.85;1.38;;;;;;;9.05;96.33;100014.19;5012744;28;97837;-32
2022/11/16 08:45:28;;;;;;;1.10;0.75;;;;;;;9.07;96.51;100023.06;5014465;28;107528;-33
2022/11/16 08:47:54;;;;;;;3.15;1.08;;;;;;;9.06;96.50;100015.94;5014722;28;96884;-31
2022/11/16 08:50:20;;;;;;;1.52;0.88;;;;;;;9.08;96.55;100022.09;4996563;28;100830;-31
2022/11/16 08:52:46;;;;;;;2.05;1.35;;;;;;;9.08;96.26;100020.28;5014689;28;97784;-31
2022/11/16 08:55:12;;;;;;;3.28;1.58;;;;;;;9.13;96.46;100031.63;5014508;28;96683;-33
2022/11/16 08:57:38;;;;;;;2.15;1.00;;;;;;;9.16;96.34;100026.97;5015309;28;97313;-33
2022/11/16 09:00:05;;;;;;;8.30;1.20;;;;;;;9.20;96.09;100029.38;5013121;28;100648;-31
2022/11/16 09:02:30;;;;;;;1.42;0.45;;;;;;;9.23;95.94;100025.59;5012800;28;101102;-31
2022/11/16 09:04:56;;;;;;;2.88;0.93;;;;;;;9.27;96.19;100027.06;5014007;28;96731;-32
2022/11/16 09:07:21;;;;;;;3.08;1.00;;;;;;;9.32;95.81;100019.53;5014689;28;96672;-31
2022/11/16 09:09:46;;;;;;;2.00;1.08;;;;;;;9.38;95.54;100029.91;5014433;28;97820;-32
2022/11/16 09:12:12;;;;;;;3.03;1.00;;;;;;;9.43;95.66;100026.88;5012940;28;99356;-32
2022/11/16 09:14:37;;;;;;;2.28;1.08;;;;;;;9.47;95.43;100021.16;5014416;28;96522;-31
2022/11/16 09:17:03;;;;;;;3.20;1.08;;;;;;;9.56;95.51;100028.63;5014224;28;96789;-31
2022/11/16 09:19:28;;;;;;;2.78;1.30;;;;;;;9.60;95.01;100021.16;5014590;28;97352;-31
2022/11/16 09:21:54;;;;;;;2.97;1.50;;;;;;;9.59;94.37;100032.94;5013894;28;107126;-32
2022/11/16 09:24:19;;;;;;;3.05;1.70;;;;;;;9.63;94.42;100025.47;5014242;28;96714;-31
2022/11/16 09:26:44;;;;;;;3.67;1.80;;;;;;;9.63;94.25;100029.06;5014408;28;96763;-32
2022/11/16 09:29:12;;;;;;;4.60;1.70;;;;;;;9.68;94.21;100032.31;5013543;28;98910;-32
2022/11/16 09:31:37;;;;;;;7.55;1.35;;;;;;;9.75;94.02;100035.44;5012239;28;100801;-31
2022/11/16 09:34:03;;;;;;;2.45;1.30;;;;;;;9.80;93.96;100027.84;5014216;28;96704;-31
2022/11/16 09:36:29;;;;;;;3.85;1.63;;;;;;;9.82;93.80;100036.72;5013964;28;96834;-31
2022/11/16 09:38:55;;;;;;;3.40;1.88;;;;;;;9.87;93.40;100033.69;5012555;28;100819;-32
2022/11/16 09:41:52;;;;;;;2.40;1.42;;;;;;;9.97;93.33;100040.16;5012518;28;100943;-31
2022/11/16 09:44:36;;;;;;;1.63;1.15;;;;;;;10.12;93.04;100038.19;5012722;28;96727;-31
2022/11/16 09:47:03;;;;;;;3.33;1.35;;;;;;;10.15;92.51;100036.13;5012913;28;96708;-31
2022/11/16 09:49:34;;;;;;;2.67;1.63;;;;;;;10.26;92.33;100042.59;5013743;28;97933;-31
2022/11/16 09:52:04;;;;;;;7.22;2.03;;;;;;;10.36;91.82;100038.25;5012418;28;99167;-31
2022/11/16 09:54:35;;;;;;;4.20;1.15;;;;;;;10.47;91.07;100037.47;5010872;28;97322;-31
2022/11/16 09:57:04;;;;;;;5.72;1.90;;;;;;;10.50;90.87;100032.69;5012224;28;97689;-32
2022/11/16 09:59:39;;;;;;;3.55;1.52;;;;;;;10.56;90.81;100036.81;5012170;28;101240;-31
2022/11/16 10:02:33;;;;;;;6.15;1.13;;;;;;;10.71;90.51;100041.06;5012237;28;101355;-31
2022/11/16 10:05:15;;;;;;;6.20;1.73;;;;;;;10.74;90.16;100039.94;5012006;28;96850;-31
2022/11/16 10:07:45;;;;;;;;;;;;;;;10.84;89.64;100036.44;5012733;28;96720;-32
2022/11/16 10:10:13;;;;;;;3.53;0.88;;;;;;;10.94;89.13;100035.72;5012032;28;101284;-31
2022/11/16 10:12:45;;;;;;;4.53;1.23;;;;;;;11.05;89.00;100022.22;5012304;28;100996;-31
2022/11/16 10:15:32;;;;;;;5.13;1.40;;;;;;;11.11;88.34;100024.47;5012123;28;96625;-31
2022/11/16 10:18:12;;;;;;;2.95;1.17;;;;;;;11.22;88.06;100029.06;5013276;28;96640;-31
2022/11/16 10:21:09;;;;;;;2.33;1.10;;;;;;;11.24;86.78;100024.38;5012957;28;97675;-31
2022/11/16 10:23:34;;;;;;;2.08;1.15;;;;;;;11.34;87.64;100040.78;5011287;28;101002;-31
2022/11/16 10:26:09;;;;;;;1.30;0.98;;;;;;;11.33;86.94;100026.38;5013493;28;96426;-31
2022/11/16 10:28:53;;;;;;;3.65;1.13;;;;;;;11.29;85.81;100030.31;5013072;28;96869;-31
2022/11/16 10:31:29;;;;;;;3.40;1.30;;;;;;;11.30;86.81;100021.19;5013123;28;98220;-32
2022/11/16 10:33:57;;;;;;;2.13;1.05;;;;;;;11.27;86.55;100026.84;5011814;28;99253;-31
2022/11/16 10:36:26;;;;;;;4.47;1.08;;;;;;;11.33;85.92;100022.81;5011674;28;96594;-32
2022/11/16 10:38:55;;;;;;;2.33;1.15;;;;;;;11.46;86.55;100020.84;5012125;28;96907;-31
2022/11/16 10:41:38;;;;;;;2.33;1.02;;;;;;;11.50;85.12;100010.63;5011551;28;101440;-31
2022/11/16 10:44:30;;;;;;;2.20;1.15;;;;;;;11.58;84.59;100022.59;5011721;28;100949;-32
2022/11/16 10:47:22;;;;;;;4.85;1.38;;;;;;;11.72;84.88;100015.22;4980466;28;96781;-31
2022/11/16 10:50:03;;;;;;;2.53;1.42;;;;;;;11.83;84.68;100017.94;5011596;28;96679;-31
2022/11/16 10:52:28;;;;;;;1.77;1.03;;;;;;;11.84;83.64;100015.06;5011324;28;101222;-31
2022/11/16 10:54:53;;;;;;;1.80;0.80;;;;;;;11.90;84.27;100008.34;5012782;28;97744;-31
2022/11/16 10:57:22;;;;;;;5.68;1.20;;;;;;;11.92;83.61;100008.19;5012849;28;96561;-31
2022/11/16 10:59:52;;;;;;;3.28;0.93;;;;;;;11.99;84.06;100009.44;5011371;28;96842;-32
2022/11/16 11:02:23;;;;;;;3.25;1.27;;;;;;;11.86;83.08;100013.09;5011246;28;102292;-31
2022/11/16 11:05:20;;;;;;;2.17;0.93;;;;;;;11.63;83.92;100024.94;5021427;28;97919;-31
2022/11/16 11:07:50;;;;;;;1.25;0.77;;;;;;;11.52;83.54;100019.50;5012118;28;96895;-31
2022/11/16 11:10:32;;;;;;;2.88;0.82;;;;;;;11.38;84.09;100021.44;5031190;28;96790;-31
2022/11/16 11:13:02;;;;;;;;;;;;;;;11.30;85.60;100021.19;5030867;28;101069;-30
2022/11/16 11:15:28;;;;;;;1.50;0.77;;;;;;;11.12;84.12;100028.91;5032258;28;97966;-31
2022/11/16 11:18:18;;;;;;;1.42;0.88;;;;;;;11.02;85.34;100020.63;5032228;27;98176;-31
2022/11/16 11:20:47;;;;;;;2.30;1.20;;;;;;;11.00;85.70;100029.84;5032925;28;96704;-31
2022/11/16 11:23:23;;;;;;;6.05;1.40;;;;;;;10.90;86.00;100035.09;5029835;28;100602;-32
2022/11/16 11:25:59;;;;;;;2.10;1.20;;;;;;;10.80;85.73;100034.09;5031081;28;99951;-31
2022/11/16 11:28:30;;;;;;;1.42;0.95;;;;;;;10.72;85.79;100023.81;5031074;28;96822;-32
2022/11/16 11:31:05;;;;;;;2.35;0.65;;;;;;;10.72;85.89;100026.50;5032202;28;96696;-34
2022/11/16 11:33:41;;;;;;;1.80;1.15;;;;;;;10.68;86.08;100027.75;5032457;27;97969;-31
2022/11/16 11:36:17;;;;;;;2.50;1.25;;;;;;;10.65;85.99;100025.25;5030762;28;100761;-31
2022/11/16 11:39:03;;;;;;;3.20;0.98;;;;;;;10.77;85.96;100029.78;5031831;27;97202;-32
2022/11/16 11:42:04;;;;;;;1.98;1.20;;;;;;;10.89;85.25;100018.97;5030903;28;97099;-31
2022/11/16 11:44:37;;;;;;;4.00;1.20;;;;;;;11.08;85.20;100021.97;5007776;27;98040;-31
2022/11/16 11:47:11;;;;;;;2.28;1.38;;;;;;;11.26;84.59;99998.00;5030404;28;100937;-31
2022/11/16 11:49:48;;;;;;;1.42;0.82;;;;;;;11.38;83.84;100004.31;5032599;27;96558;-33
2022/11/16 11:52:40;;;;;;;1.70;0.82;;;;;;;11.40;83.08;99997.78;5030807;28;96728;-31
2022/11/16 11:55:07;;;;;;;2.67;1.30;;;;;;;11.39;82.49;99989.78;5031785;28;97667;-31
2022/11/16 11:57:37;;;;;;;4.05;1.17;;;;;;;11.36;83.23;99993.59;5030918;28;100720;-32
2022/11/16 12:00:05;;;;;;;0.95;0.85;;;;;;;11.27;82.93;99984.34;5032148;28;96604;-31
2022/11/16 12:02:52;;;;;;;5.57;1.60;;;;;;;11.30;82.99;99988.66;5030661;28;96868;-33
2022/11/16 12:05:42;;;;;;;8.07;0.68;;;;;;;11.25;83.53;99985.47;5031352;28;97423;-31
2022/11/16 12:08:16;;;;;;;0.85;0.60;;;;;;;11.17;83.42;99982.47;5032009;27;96950;-32
2022/11/16 12:10:50;;;;;;;3.85;1.42;;;;;;;11.18;83.41;99985.06;5032083;27;96628;-31
2022/11/16 12:13:52;;;;;;;2.70;0.90;;;;;;;11.17;83.39;99979.75;5030690;28;96525;-33
2022/11/16 12:16:35;;;;;;;2.50;0.85;;;;;;;11.11;83.98;99978.41;5031241;28;99518;-31
2022/11/16 12:19:13;;;;;;;2.38;0.38;;;;;;;11.10;84.21;99984.78;5033084;27;101061;-31
2022/11/16 12:22:28;;;;;;;1.85;1.05;;;;;;;11.09;83.26;99983.06;5033725;28;96779;-31